Time;durP1;ratioP1;P1;durP2;ratioP2;P2;SDS_P1;SDS_P2;PMS_P1;PMS_P2;Temp;Humidity;BMP_temperature;BMP_pressure;BME280_temperature;BME280_humidity;BME280_pressure;Samples;Min_cycle;Max_cycle;Signal;HPM_P1;HPM_P2
2022/03/17 00:01:19;;;;;;;;;;;;;;;-6.12;82.46;101284.09;1764266;81;20118;-67
2022/03/17 00:03:51;;;;;;;;;;;;;;;-6.13;82.72;101283.25;1764691;80;20114;-66
2022/03/17 00:06:15;;;;;;;;;;;;;;;-6.14;82.79;101284.25;1795137;80;21202;-66
2022/03/17 00:08:46;;;;;;;;;;;;;;;-6.14;82.96;101284.75;1792898;80;20092;-67
2022/03/17 00:11:15;;;;;;;;;;;;;;;-6.15;82.94;101285.75;1793642;80;20424;-66
2022/03/17 00:13:45;;;;;;;;;;;;;;;-6.18;83.00;101290.93;1795957;79;20157;-66
2022/03/17 00:16:21;;;;;;;;;;;;;;;-6.20;83.18;101288.09;1769214;80;20427;-66
2022/03/17 00:18:57;;;;;;;;;;;;;;;-6.22;83.41;101282.06;1795265;80;20419;-66
2022/03/17 00:21:31;;;;;;;;;;;;;;;-6.22;83.66;101284.73;1795940;80;20135;-66
2022/03/17 00:24:00;;;;;;;;;;;;;;;-6.23;83.64;101285.23;1796036;79;20080;-66
2022/03/17 00:26:30;;;;;;;;;;;;;;;-6.24;83.73;101288.08;1796038;79;20099;-66
2022/03/17 00:29:07;;;;;;;;;;;;;;;-6.28;83.86;101289.41;1769558;80;20420;-66
2022/03/17 00:31:39;;;;;;;;;;;;;;;-6.29;83.96;101289.06;1795828;80;21145;-67
2022/03/17 00:34:12;;;;;;;;;;;;;;;-6.32;84.11;101291.06;1768685;80;20505;-67
2022/03/17 00:36:46;;;;;;;;;;;;;;;-6.31;84.20;101293.23;1795055;80;20420;-67
2022/03/17 00:39:12;;;;;;;;;;;;;;;-6.33;84.29;101288.06;1796025;79;20080;-66
2022/03/17 00:41:41;;;;;;;;;;;;;;;-6.32;84.33;101284.39;1767713;80;20104;-66
2022/03/17 00:44:14;;;;;;;;;;;;;;;-6.33;84.24;101288.56;1793113;80;21164;-66
2022/03/17 00:46:46;;;;;;;;;;;;;;;-6.35;84.08;101286.55;1791911;80;20418;-66
2022/03/17 00:49:16;;;;;;;;;;;;;;;-6.36;83.95;101291.09;1795513;79;20096;-65
2022/03/17 00:51:45;;;;;;;;;;;;;;;-6.38;83.91;101292.25;1791189;80;20116;-65
2022/03/17 00:54:14;;;;;;;;;;;;;;;-6.41;83.74;101291.23;1795565;79;20123;-65
2022/03/17 00:56:42;;;;;;;;;;;;;;;-6.47;83.63;101290.55;1795457;80;22137;-65
2022/03/17 00:59:11;;;;;;;;;;;;;;;-6.51;83.66;101286.53;1795450;79;20096;-65
2022/03/17 01:01:41;;;;;;;;;;;;;;;-6.56;83.74;101288.35;1794921;80;20072;-65
2022/03/17 01:04:08;;;;;;;;;;;;;;;-6.55;84.21;101290.52;1795697;80;20434;-66
2022/03/17 01:06:35;;;;;;;;;;;;;;;-6.52;84.39;101295.55;1795504;79;20139;-65
2022/03/17 01:09:04;;;;;;;;;;;;;;;-6.53;84.36;101297.87;1795495;80;21186;-65
2022/03/17 01:11:32;;;;;;;;;;;;;;;-6.55;84.42;101298.04;1795680;79;20108;-65
2022/03/17 01:13:59;;;;;;;;;;;;;;;-6.56;84.67;101300.38;1795595;80;20080;-65
2022/03/17 01:16:26;;;;;;;;;;;;;;;-6.56;84.93;101298.20;1795449;79;20123;-65
2022/03/17 01:18:53;;;;;;;;;;;;;;;-6.57;85.02;101301.37;1795464;79;20096;-65
2022/03/17 01:21:20;;;;;;;;;;;;;;;-6.56;84.93;101292.86;1795572;80;21137;-65
2022/03/17 01:23:48;;;;;;;;;;;;;;;-6.58;85.01;101298.86;1795504;80;20424;-65
2022/03/17 01:26:15;;;;;;;;;;;;;;;-6.57;85.16;101305.88;1789933;80;20136;-65
2022/03/17 01:28:43;;;;;;;;;;;;;;;-6.58;85.20;101305.55;1789713;79;20116;-65
2022/03/17 01:31:11;;;;;;;;;;;;;;;-6.58;85.49;101310.38;1791799;79;20080;-66
2022/03/17 01:33:38;;;;;;;;;;;;;;;-6.50;85.95;101310.42;1795596;79;21245;-65
2022/03/17 01:36:06;;;;;;;;;;;;;;;-6.41;86.21;101304.09;1795387;79;20131;-65
2022/03/17 01:38:34;;;;;;;;;;;;;;;-6.29;86.10;101312.63;1795472;79;20172;-65
2022/03/17 01:41:01;;;;;;;;;;;;;;;-6.20;85.94;101306.30;1792547;79;20080;-65
2022/03/17 01:43:28;;;;;;;;;;;;;;;-6.09;85.66;101301.14;1786072;80;20120;-66
2022/03/17 01:45:55;;;;;;;;;;;;;;;-6.02;85.43;101296.30;1785984;80;21871;-66
2022/03/17 01:48:22;;;;;;;;;;;;;;;-5.95;84.96;101299.66;1785913;80;20127;-66
2022/03/17 01:50:50;;;;;;;;;;;;;;;-5.94;84.51;101299.99;1786028;80;20096;-66
2022/03/17 01:53:19;;;;;;;;;;;;;;;-5.95;84.26;101296.48;1794027;80;20132;-65
2022/03/17 01:55:46;;;;;;;;;;;;;;;-5.93;84.21;101293.64;1774221;81;20093;-65
2022/03/17 01:58:13;;;;;;;;;;;;;;;-5.93;84.17;101296.31;1774163;81;21236;-65
2022/03/17 02:00:40;;;;;;;;;;;;;;;-5.92;84.17;101301.50;1774190;81;20093;-65
2022/03/17 02:03:09;;;;;;;;;;;;;;;-5.90;84.07;101304.01;1774409;80;20424;-66
2022/03/17 02:05:36;;;;;;;;;;;;;;;-5.90;83.96;101304.84;1773857;81;20085;-65
2022/03/17 02:08:09;;;;;;;;;;;;;;;-5.91;83.86;101301.83;1774516;81;20097;-65
2022/03/17 02:13:24;;;;;;;;;;;;;;;-5.91;83.65;101311.70;1761174;80;20093;-66
2022/03/17 02:15:55;;;;;;;;;;;;;;;-5.91;83.73;101315.20;1760302;80;20102;-69
2022/03/17 02:18:24;;;;;;;;;;;;;;;-5.92;83.78;101320.22;1756865;81;20193;-68
2022/03/17 02:20:53;;;;;;;;;;;;;;;-5.93;83.87;101320.38;1785349;79;20445;-67
2022/03/17 02:26:07;;;;;;;;;;;;;;;-5.97;83.89;101321.21;1761958;81;20093;-68
2022/03/17 02:28:38;;;;;;;;;;;;;;;-6.00;83.87;101322.38;1758941;81;20089;-68
2022/03/17 02:31:06;;;;;;;;;;;;;;;-6.00;83.87;101324.22;1768000;81;20116;-67
2022/03/17 02:33:38;;;;;;;;;;;;;;;-6.02;83.77;101333.73;1774239;80;20085;-67
2022/03/17 02:36:04;;;;;;;;;;;;;;;-6.03;83.74;101333.41;1770816;81;21264;-67
2022/03/17 02:38:32;;;;;;;;;;;;;;;-6.03;83.77;101332.56;1764562;81;20423;-67
2022/03/17 02:41:00;;;;;;;;;;;;;;;-6.06;83.68;101336.91;1767475;80;20156;-67
2022/03/17 02:43:27;;;;;;;;;;;;;;;-6.06;83.88;101347.60;1782567;80;20096;-66
2022/03/17 02:45:54;;;;;;;;;;;;;;;-6.07;84.02;101345.92;1794015;80;20451;-67
2022/03/17 02:48:21;;;;;;;;;;;;;;;-6.10;84.02;101348.42;1781449;80;21231;-66
2022/03/17 02:50:48;;;;;;;;;;;;;;;-6.12;83.94;101358.45;1778775;80;20107;-67
2022/03/17 02:53:17;;;;;;;;;;;;;;;-6.16;83.95;101354.92;1788463;80;20088;-67
2022/03/17 02:55:45;;;;;;;;;;;;;;;-6.19;83.93;101356.09;1795720;80;20116;-65
2022/03/17 02:58:12;;;;;;;;;;;;;;;-6.22;84.04;101356.91;1785057;80;20199;-65
2022/03/17 03:00:40;;;;;;;;;;;;;;;-6.23;84.25;101362.76;1787977;80;21230;-65
2022/03/17 03:03:07;;;;;;;;;;;;;;;-6.26;84.38;101355.06;1788250;80;20128;-65
2022/03/17 03:05:34;;;;;;;;;;;;;;;-6.27;84.35;101357.40;1782201;80;20079;-65
2022/03/17 03:08:02;;;;;;;;;;;;;;;-6.29;84.21;101361.23;1782174;80;20115;-65
2022/03/17 03:10:31;;;;;;;;;;;;;;;-6.30;84.11;101357.72;1788962;80;20104;-66
2022/03/17 03:12:58;;;;;;;;;;;;;;;-6.32;83.96;101358.38;1788991;80;21957;-65
2022/03/17 03:15:26;;;;;;;;;;;;;;;-6.35;83.87;101366.72;1787159;80;20395;-65
2022/03/17 03:17:54;;;;;;;;;;;;;;;-6.41;83.78;101368.23;1785962;80;20112;-65
2022/03/17 03:20:23;;;;;;;;;;;;;;;-6.47;83.58;101368.87;1793348;80;20439;-66
2022/03/17 03:22:50;;;;;;;;;;;;;;;-6.54;83.50;101367.01;1795920;80;20159;-67
2022/03/17 03:25:17;;;;;;;;;;;;;;;-6.59;83.64;101371.49;1796038;80;21901;-67
2022/03/17 03:27:45;;;;;;;;;;;;;;;-6.62;83.82;101378.98;1795846;80;20131;-67
2022/03/17 03:30:14;;;;;;;;;;;;;;;-6.66;84.04;101379.80;1796020;80;20096;-66
2022/03/17 03:32:44;;;;;;;;;;;;;;;-6.70;84.37;101374.44;1796291;80;20119;-67
2022/03/17 03:37:56;;;;;;;;;;;;;;;-6.76;84.63;101375.91;1796120;80;21171;-67
2022/03/17 03:40:24;;;;;;;;;;;;;;;-6.82;84.59;101381.89;1795858;80;20079;-68
2022/03/17 03:42:51;;;;;;;;;;;;;;;-6.85;84.67;101382.20;1795816;80;20120;-67
2022/03/17 03:45:18;;;;;;;;;;;;;;;-6.87;84.71;101385.53;1795890;80;20095;-69
2022/03/17 03:47:45;;;;;;;;;;;;;;;-6.88;84.82;101387.02;1796047;80;20107;-67
2022/03/17 03:50:13;;;;;;;;;;;;;;;-6.93;84.77;101387.49;1795909;80;21130;-67
2022/03/17 03:52:40;;;;;;;;;;;;;;;-6.96;84.70;101393.67;1795932;80;20115;-67
2022/03/17 03:55:10;;;;;;;;;;;;;;;-7.01;84.89;101392.81;1796272;80;20116;-67
2022/03/17 03:57:38;;;;;;;;;;;;;;;-7.04;85.05;101399.80;1796199;80;20091;-67
2022/03/17 04:02:53;;;;;;;;;;;;;;;-7.05;85.46;101399.45;1796219;80;22014;-70
2022/03/17 04:05:22;;;;;;;;;;;;;;;-7.02;85.72;101396.47;1794380;79;20557;-67
2022/03/17 04:07:49;;;;;;;;;;;;;;;-7.02;85.67;101401.81;1795169;80;20435;-68
2022/03/17 04:10:17;;;;;;;;;;;;;;;-7.03;85.65;101404.14;1794790;80;20092;-66
2022/03/17 04:12:44;;;;;;;;;;;;;;;-7.05;85.67;101415.47;1795259;80;20127;-66
2022/03/17 04:15:11;;;;;;;;;;;;;;;-7.06;85.83;101407.95;1795140;80;21235;-66
2022/03/17 04:17:40;;;;;;;;;;;;;;;-7.06;85.96;101414.63;1795278;79;20116;-67
2022/03/17 04:20:09;;;;;;;;;;;;;;;-7.05;86.08;101415.47;1795408;79;20120;-67
2022/03/17 04:22:37;;;;;;;;;;;;;;;-7.06;86.14;101413.80;1795337;79;20080;-67
2022/03/17 04:25:05;;;;;;;;;;;;;;;-7.07;86.32;101424.13;1795407;80;20120;-68
2022/03/17 04:27:32;;;;;;;;;;;;;;;-7.07;86.79;101416.13;1795711;79;21039;-68
2022/03/17 04:30:00;;;;;;;;;;;;;;;-7.05;86.92;101420.81;1795402;79;20103;-67
2022/03/17 04:32:28;;;;;;;;;;;;;;;-7.01;87.06;101426.17;1794968;80;20167;-67
2022/03/17 04:34:54;;;;;;;;;;;;;;;-6.98;87.05;101421.02;1795118;79;20115;-67
2022/03/17 04:37:23;;;;;;;;;;;;;;;-6.97;87.00;101430.21;1795207;79;20080;-67
2022/03/17 04:39:50;;;;;;;;;;;;;;;-6.94;87.01;101440.58;1795174;80;21124;-67
2022/03/17 04:42:17;;;;;;;;;;;;;;;-6.88;87.12;101439.93;1794934;79;20144;-67
2022/03/17 04:44:44;;;;;;;;;;;;;;;-6.82;87.10;101441.13;1795278;79;20120;-71
2022/03/17 04:47:11;;;;;;;;;;;;;;;-6.75;87.17;101443.52;1795088;80;20498;-68
2022/03/17 04:49:39;;;;;;;;;;;;;;;-6.69;87.13;101442.89;1795485;79;20419;-66
2022/03/17 04:53:26;;;;;;;;;;;;;;;-6.59;87.20;101450.80;1795532;79;21270;-67
2022/03/17 04:54:38;;;;;;;;;;;;;;;-6.51;86.91;101459.70;1791368;80;20080;-67
2022/03/17 04:57:05;;;;;;;;;;;;;;;-6.45;86.71;101463.08;1794749;80;20184;-67
2022/03/17 04:59:32;;;;;;;;;;;;;;;-6.36;86.42;101458.13;1794942;80;20154;-68
2022/03/17 05:01:59;;;;;;;;;;;;;;;-6.24;86.37;101472.52;1794034;80;21132;-67
2022/03/17 05:04:27;;;;;;;;;;;;;;;-6.18;86.19;101463.36;1794778;79;21093;-67
2022/03/17 05:06:55;;;;;;;;;;;;;;;-6.09;86.01;101473.09;1794375;80;20115;-67
2022/03/17 05:09:24;;;;;;;;;;;;;;;-6.04;85.54;101469.44;1794773;80;20144;-67
2022/03/17 05:11:53;;;;;;;;;;;;;;;-5.98;85.11;101479.16;1794641;80;20423;-67
2022/03/17 05:14:21;;;;;;;;;;;;;;;-5.93;84.86;101479.02;1794895;79;20191;-68
2022/03/17 05:16:49;;;;;;;;;;;;;;;-5.89;84.57;101480.36;1794609;80;21121;-67
2022/03/17 05:19:15;;;;;;;;;;;;;;;-5.84;84.25;101483.36;1794666;80;20119;-69
2022/03/17 05:21:44;;;;;;;;;;;;;;;-5.79;83.95;101489.56;1794862;79;20411;-67
2022/03/17 05:24:11;;;;;;;;;;;;;;;-5.75;83.70;101489.55;1794792;80;20152;-68
2022/03/17 05:26:39;;;;;;;;;;;;;;;-5.72;83.67;101487.88;1794999;79;20156;-67
2022/03/17 05:29:08;;;;;;;;;;;;;;;-5.67;83.50;101489.08;1795217;79;21222;-66
2022/03/17 05:31:35;;;;;;;;;;;;;;;-5.62;83.14;101491.77;1795365;79;20068;-66
2022/03/17 05:34:03;;;;;;;;;;;;;;;-5.57;82.91;101496.96;1795553;79;20198;-65
2022/03/17 05:36:31;;;;;;;;;;;;;;;-5.51;82.75;101503.50;1814969;79;20070;-65
2022/03/17 05:38:57;;;;;;;;;;;;;;;-5.49;83.47;101506.35;1815099;79;20106;-65
2022/03/17 05:41:25;;;;;;;;;;;;;;;-5.43;83.30;101504.36;1815077;79;21239;-65
2022/03/17 05:43:52;;;;;;;;;;;;;;;-5.40;82.77;101507.21;1814798;79;20090;-65
2022/03/17 05:46:22;;;;;;;;;;;;;;;-5.39;82.44;101512.40;1814933;79;20114;-65
2022/03/17 05:48:49;;;;;;;;;;;;;;;-5.40;82.07;101514.74;1815174;79;20601;-67
2022/03/17 05:51:16;;;;;;;;;;;;;;;-5.39;81.79;101515.58;1815064;79;20153;-67
2022/03/17 05:53:43;;;;;;;;;;;;;;;-5.36;81.73;101515.25;1825713;77;21780;-65
2022/03/17 05:56:13;;;;;;;;;;;;;;;-5.28;81.91;101510.41;1822245;77;20110;-66
2022/03/17 05:58:41;;;;;;;;;;;;;;;-5.15;82.06;101513.42;1815141;79;20158;-66
2022/03/17 06:01:09;;;;;;;;;;;;;;;-5.01;81.62;101519.46;1814884;79;20090;-65
2022/03/17 06:03:36;;;;;;;;;;;;;;;-4.86;81.39;101518.30;1815019;79;20149;-65
2022/03/17 06:06:04;;;;;;;;;;;;;;;-4.73;81.50;101514.12;1814903;79;21088;-66
2022/03/17 06:08:31;;;;;;;;;;;;;;;-4.56;81.13;101516.25;1796984;79;20112;-66
2022/03/17 06:10:58;;;;;;;;;;;;;;;-4.41;80.74;101511.87;1781002;80;20411;-66
2022/03/17 06:13:25;;;;;;;;;;;;;;;-4.26;79.71;101509.34;1784297;79;20084;-65
2022/03/17 06:15:53;;;;;;;;;;;;;;;-4.14;78.10;101510.65;1793362;80;20115;-65
2022/03/17 06:18:22;;;;;;;;;;;;;;;-4.01;76.96;101506.89;1795992;80;20116;-66
2022/03/17 06:20:49;;;;;;;;;;;;;;;-3.82;73.26;101511.52;1796113;80;20092;-65
2022/03/17 06:23:17;;;;;;;;;;;;;;;-3.68;72.09;101518.84;1795974;80;20084;-65
2022/03/17 06:25:45;;;;;;;;;;;;;;;-3.55;69.18;101519.62;1795733;80;20120;-65
2022/03/17 06:28:13;;;;;;;;;;;;;;;-3.43;67.43;101518.19;1796066;80;20080;-65
2022/03/17 06:30:40;;;;;;;;;;;;;;;-3.35;66.76;101516.80;1795974;80;21159;-65
2022/03/17 06:33:08;;;;;;;;;;;;;;;-3.25;65.22;101518.75;1795805;80;20096;-65
2022/03/17 06:35:35;;;;;;;;;;;;;;;-3.17;63.86;101516.02;1796105;80;20092;-65
2022/03/17 06:38:04;;;;;;;;;;;;;;;-3.10;62.55;101522.35;1789112;80;20411;-65
2022/03/17 06:40:31;;;;;;;;;;;;;;;-3.02;63.50;101519.61;1792455;80;20080;-65
2022/03/17 06:42:58;;;;;;;;;;;;;;;-2.89;62.23;101524.39;1790731;80;21128;-65
2022/03/17 06:45:25;;;;;;;;;;;;;;;-2.81;60.82;101520.77;1785944;80;20092;-65
2022/03/17 06:47:51;;;;;;;;;;;;;;;-2.76;60.22;101525.09;1786209;80;20140;-65
2022/03/17 06:50:20;;;;;;;;;;;;;;;-2.70;59.80;101526.56;1785211;80;20151;-66
2022/03/17 06:52:47;;;;;;;;;;;;;;;-2.64;59.40;101528.20;1785318;80;20084;-65
2022/03/17 06:55:15;;;;;;;;;;;;;;;-2.59;58.90;101527.14;1786042;80;21834;-64
2022/03/17 06:57:43;;;;;;;;;;;;;;;-2.54;58.87;101522.06;1785865;80;20157;-66
2022/03/17 07:00:13;;;;;;;;;;;;;;;-2.43;58.71;101514.90;1786031;80;20092;-64
2022/03/17 07:02:40;;;;;;;;;;;;;;;-2.35;58.73;101519.69;1785562;80;20080;-65
2022/03/17 07:05:08;;;;;;;;;;;;;;;-2.27;57.00;101521.44;1786047;80;20069;-65
2022/03/17 07:07:37;;;;;;;;;;;;;;;-2.23;56.36;101523.25;1785908;80;20447;-66
2022/03/17 07:10:07;;;;;;;;;;;;;;;-2.21;55.16;101522.05;1786168;80;20451;-66
2022/03/17 07:12:36;;;;;;;;;;;;;;;-2.15;56.39;101523.16;1785966;80;20127;-65
2022/03/17 07:15:05;;;;;;;;;;;;;;;-2.03;54.37;101523.03;1785905;80;20080;-66
2022/03/17 07:17:39;;;;;;;;;;;;;;;-1.88;53.75;101533.30;1786003;80;20116;-66
2022/03/17 07:20:06;;;;;;;;;;;;;;;-1.57;52.52;101538.45;1786071;80;40206;-66
2022/03/17 07:22:35;;;;;;;;;;;;;;;-1.12;51.87;101533.77;1785848;80;20096;-66
2022/03/17 07:25:03;;;;;;;;;;;;;;;-0.73;50.89;101545.48;1786111;80;20420;-66
2022/03/17 07:27:33;;;;;;;;;;;;;;;-0.35;50.02;101540.09;1786210;80;20415;-65
2022/03/17 07:29:59;;;;;;;;;;;;;;;0.09;49.77;101538.92;1785939;80;20459;-66
2022/03/17 07:32:28;;;;;;;;;;;;;;;0.35;48.20;101539.59;1785815;80;21137;-69
2022/03/17 07:34:55;;;;;;;;;;;;;;;0.43;47.15;101539.42;1784015;80;20123;-67
2022/03/17 07:37:22;;;;;;;;;;;;;;;0.47;46.50;101535.28;1793997;80;20082;-68
2022/03/17 07:39:50;;;;;;;;;;;;;;;0.60;45.70;101533.97;1774355;80;20129;-68
2022/03/17 07:42:18;;;;;;;;;;;;;;;0.68;46.16;101532.95;1775018;80;20097;-67
2022/03/17 07:44:55;;;;;;;;;;;;;;;0.83;46.09;101534.15;1712842;83;21322;-69
2022/03/17 07:47:47;;;;;;;;;;;;;;;1.04;45.61;101535.88;1784687;80;20151;-69
2022/03/17 07:50:14;;;;;;;;;;;;;;;1.35;45.53;101535.27;1787089;80;20115;-68
2022/03/17 07:52:42;;;;;;;;;;;;;;;1.62;43.55;101537.80;1786907;80;20100;-67
2022/03/17 07:55:09;;;;;;;;;;;;;;;1.68;42.67;101529.88;1787073;80;20467;-65
2022/03/17 07:57:36;;;;;;;;;;;;;;;1.66;42.60;101531.44;1787083;80;21854;-66
2022/03/17 08:00:07;;;;;;;;;;;;;;;1.72;44.33;101529.77;1787004;80;20435;-62
2022/03/17 08:02:38;;;;;;;;;;;;;;;1.88;43.16;101536.92;1805521;79;20100;-64
2022/03/17 08:05:05;;;;;;;;;;;;;;;2.09;42.98;101525.53;1795996;79;20116;-63
2022/03/17 08:07:34;;;;;;;;;;;;;;;2.28;42.66;101524.13;1784433;80;20434;-63
2022/03/17 08:10:02;;;;;;;;;;;;;;;2.47;41.03;101525.08;1788201;80;21348;-71
2022/03/17 08:12:32;;;;;;;;;;;;;;;2.58;40.78;101528.48;1788501;80;20104;-67
2022/03/17 08:15:01;;;;;;;;;;;;;;;2.62;40.28;101522.94;1788141;80;20455;-68
2022/03/17 08:17:28;;;;;;;;;;;;;;;2.68;40.85;101524.48;1788004;80;20089;-67
2022/03/17 08:19:55;;;;;;;;;;;;;;;2.86;40.39;101525.95;1786518;80;20120;-68
2022/03/17 08:22:27;;;;;;;;;;;;;;;3.08;39.03;101524.55;1788374;80;21256;-67
2022/03/17 08:24:58;;;;;;;;;;;;;;;3.28;38.30;101529.33;1787760;80;20139;-67
2022/03/17 08:27:29;;;;;;;;;;;;;;;3.35;38.43;101521.66;1757062;80;20096;-67
2022/03/17 08:30:00;;;;;;;;;;;;;;;3.38;38.83;101526.13;1758505;80;20088;-67
2022/03/17 08:32:30;;;;;;;;;;;;;;;3.58;37.40;101521.87;1761267;80;20120;-66
2022/03/17 08:34:59;;;;;;;;;;;;;;;3.56;36.72;101518.55;1787709;80;21820;-67
2022/03/17 08:37:27;;;;;;;;;;;;;;;3.45;35.91;101523.36;1787000;80;20143;-71
2022/03/17 08:40:01;;;;;;;;;;;;;;;3.49;36.92;101528.63;1786921;80;20080;-66
2022/03/17 08:42:33;;;;;;;;;;;;;;;3.70;36.22;101521.45;1786387;80;20093;-66
2022/03/17 08:50:47;;;;;;;;;;;;;;;3.54;34.03;101528.80;1804321;79;20160;-63
2022/03/17 08:53:19;;;;;;;;;;;;;;;3.49;34.23;101531.34;1826786;78;20109;-66
2022/03/17 08:55:45;;;;;;;;;;;;;;;3.63;33.67;101524.75;1826377;78;20065;-66
2022/03/17 08:58:16;;;;;;;;;;;;;;;3.76;33.28;101530.08;1825327;78;20105;-63
2022/03/17 09:00:51;;;;;;;;;;;;;;;3.63;32.67;101534.27;1824632;78;21221;-62
2022/03/17 09:03:20;;;;;;;;;;;;;;;3.38;32.80;101538.34;1820401;78;20496;-65
2022/03/17 09:05:48;;;;;;;;;;;;;;;2.98;32.51;101545.37;1766044;79;20099;-63
2022/03/17 09:08:17;;;;;;;;;;;;;;;2.60;32.95;101529.09;1793676;79;20450;-67
2022/03/17 09:10:52;;;;;;;;;;;;;;;2.59;33.80;101530.14;1796438;79;20112;-67
2022/03/17 09:13:17;;;;;;;;;;;;;;;2.83;33.45;101527.75;1800547;79;21263;-65
2022/03/17 09:15:46;;;;;;;;;;;;;;;3.16;34.05;101534.31;1800013;79;20111;-63
2022/03/17 09:18:16;;;;;;;;;;;;;;;3.60;33.39;101521.95;1786910;80;20084;-66
2022/03/17 09:20:50;;;;;;;;;;;;;;;4.04;32.34;101515.19;1783883;80;20068;-67
2022/03/17 09:23:20;;;;;;;;;;;;;;;4.07;32.26;101519.62;1765722;80;20076;-63
2022/03/17 09:25:49;;;;;;;;;;;;;;;3.73;32.01;101527.80;1788596;80;21283;-63
2022/03/17 09:28:18;;;;;;;;;;;;;;;3.56;32.67;101542.98;1789343;80;20104;-63
2022/03/17 09:30:51;;;;;;;;;;;;;;;3.62;31.83;101532.60;1788379;80;20120;-64
2022/03/17 09:33:19;;;;;;;;;;;;;;;3.72;32.09;101526.67;1766548;80;20096;-65
2022/03/17 09:35:55;;;;;;;;;;;;;;;3.89;31.69;101519.09;1767920;79;20434;-64
2022/03/17 09:38:26;;;;;;;;;;;;;;;4.06;32.16;101523.92;1792067;79;21152;-63
2022/03/17 09:40:58;;;;;;;;;;;;;;;4.31;31.64;101525.53;1789012;79;20104;-63
2022/03/17 09:43:33;;;;;;;;;;;;;;;4.54;31.98;101522.13;1770311;81;20118;-63
2022/03/17 09:46:05;;;;;;;;;;;;;;;4.94;32.60;101523.78;1761802;81;20082;-67
2022/03/17 09:48:38;;;;;;;;;;;;;;;5.02;29.07;101515.83;1761407;81;20090;-66
2022/03/17 09:51:05;;;;;;;;;;;;;;;4.84;30.59;101539.83;1762428;81;21175;-65
2022/03/17 09:53:32;;;;;;;;;;;;;;;4.84;31.50;101536.27;1762471;81;20106;-67
2022/03/17 09:56:03;;;;;;;;;;;;;;;5.11;31.09;101531.30;1762424;81;20135;-63
2022/03/17 09:58:32;;;;;;;;;;;;;;;5.44;30.73;101525.34;1761394;81;20114;-65
2022/03/17 10:01:06;;;;;;;;;;;;;;;5.72;29.85;101536.41;1762788;81;20114;-68
2022/03/17 10:03:38;;;;;;;;;;;;;;;5.85;29.77;101540.77;1733863;81;20114;-69
2022/03/17 10:06:07;;;;;;;;;;;;;;;5.87;30.68;101534.55;1762690;81;20425;-69
2022/03/17 10:08:54;;;;;;;;;;;;;;;6.01;30.50;101538.73;1734500;81;20217;-72
2022/03/17 10:11:12;;;;;;;;;;;;;;;6.11;30.41;101538.14;1732670;81;20114;-68
2022/03/17 10:13:45;;;;;;;;;;;;;;;6.14;30.03;101544.48;1762425;81;20114;-68
2022/03/17 10:16:18;;;;;;;;;;;;;;;6.42;29.71;101528.19;1771562;81;20106;-68
2022/03/17 10:18:53;;;;;;;;;;;;;;;6.71;28.57;101540.52;1771705;81;20129;-66
2022/03/17 10:21:32;;;;;;;;;;;;;;;6.67;28.39;101543.44;1764542;81;20098;-65
2022/03/17 10:24:12;;;;;;;;;;;;;;;6.43;28.65;101534.47;1762760;81;20082;-70
2022/03/17 10:26:44;;;;;;;;;;;;;;;5.98;28.02;101524.75;1761110;81;20444;-66
2022/03/17 10:29:15;;;;;;;;;;;;;;;5.49;29.41;101530.91;1734999;81;21229;-68
2022/03/17 10:31:59;;;;;;;;;;;;;;;5.33;30.79;101532.41;1762544;81;20291;-67
2022/03/17 10:34:32;;;;;;;;;;;;;;;5.44;31.37;101534.87;1782452;80;20195;-70
2022/03/17 10:37:15;;;;;;;;;;;;;;;5.80;30.69;101525.66;1795580;79;20380;-68
2022/03/17 10:39:45;;;;;;;;;;;;;;;6.11;29.83;101517.16;1792754;80;20447;-69
2022/03/17 10:42:17;;;;;;;;;;;;;;;6.27;29.27;101523.25;1779465;80;21874;-64
2022/03/17 10:44:52;;;;;;;;;;;;;;;6.16;29.42;101520.00;1777067;80;20170;-66
2022/03/17 10:47:30;;;;;;;;;;;;;;;6.06;30.04;101514.31;1784603;80;20092;-68
2022/03/17 10:50:01;;;;;;;;;;;;;;;6.11;29.84;101523.15;1787532;80;20108;-68
2022/03/17 10:52:52;;;;;;;;;;;;;;;6.28;30.03;101509.08;1769358;80;20088;-68
2022/03/17 10:55:26;;;;;;;;;;;;;;;6.55;29.61;101518.37;1793588;80;21173;-68
2022/03/17 10:58:14;;;;;;;;;;;;;;;6.67;27.74;101510.69;1793780;79;20415;-71
2022/03/17 11:00:46;;;;;;;;;;;;;;;6.45;28.17;101514.06;1793964;80;20084;-75
2022/03/17 11:03:14;;;;;;;;;;;;;;;6.12;29.27;101517.45;1793881;79;20135;-63
2022/03/17 11:05:50;;;;;;;;;;;;;;;5.77;29.50;101512.00;1794058;80;20088;-63
2022/03/17 11:08:20;;;;;;;;;;;;;;;5.39;29.68;101526.03;1794332;79;21223;-64
2022/03/17 11:10:51;;;;;;;;;;;;;;;5.25;30.43;101522.68;1769162;80;20131;-64
2022/03/17 11:13:20;;;;;;;;;;;;;;;5.38;31.31;101518.92;1768586;80;20101;-63
2022/03/17 11:16:01;;;;;;;;;;;;;;;5.64;30.55;101512.23;1793950;80;20108;-63
2022/03/17 11:18:36;;;;;;;;;;;;;;;5.87;30.71;101516.30;1789926;80;20415;-66
2022/03/17 11:21:23;;;;;;;;;;;;;;;6.04;29.70;101524.63;1787139;80;21274;-66
2022/03/17 11:24:06;;;;;;;;;;;;;;;6.16;29.77;101520.54;1768270;80;20111;-64
2022/03/17 11:26:44;;;;;;;;;;;;;;;6.29;28.40;101512.94;1765123;80;20096;-65
2022/03/17 11:29:18;;;;;;;;;;;;;;;6.33;27.83;101520.11;1793315;80;20084;-65
2022/03/17 11:32:02;;;;;;;;;;;;;;;6.24;29.50;101510.63;1768984;80;20116;-65
2022/03/17 11:34:47;;;;;;;;;;;;;;;6.39;28.95;101511.47;1793538;80;20993;-65
2022/03/17 11:37:26;;;;;;;;;;;;;;;6.57;29.88;101514.87;1769131;80;20115;-66
2022/03/17 11:40:13;;;;;;;;;;;;;;;6.62;27.57;101506.78;1793659;80;20159;-65
2022/03/17 11:42:49;;;;;;;;;;;;;;;6.47;29.31;101505.10;1791430;80;20427;-64
2022/03/17 11:45:23;;;;;;;;;;;;;;;6.54;29.14;101508.53;1795474;79;20092;-64
2022/03/17 11:47:57;;;;;;;;;;;;;;;6.56;28.39;101512.38;1796080;80;21236;-65
2022/03/17 11:50:40;;;;;;;;;;;;;;;6.51;29.72;101505.45;1794950;80;20111;-64
2022/03/17 11:53:20;;;;;;;;;;;;;;;6.39;29.43;101515.02;1794539;80;20139;-62
2022/03/17 11:56:03;;;;;;;;;;;;;;;6.18;29.33;101519.77;1796297;80;20119;-63
2022/03/17 11:58:34;;;;;;;;;;;;;;;6.03;29.00;101507.14;1788558;80;20084;-64
2022/03/17 12:01:14;;;;;;;;;;;;;;;5.85;28.51;101512.98;1796425;80;21136;-64
2022/03/17 12:03:53;;;;;;;;;;;;;;;5.91;29.82;101514.80;1795859;80;20191;-63
2022/03/17 12:06:35;;;;;;;;;;;;;;;6.19;30.35;101514.61;1795220;80;20171;-64
2022/03/17 12:09:02;;;;;;;;;;;;;;;6.06;29.45;101514.85;1788190;80;20521;-63
2022/03/17 12:11:32;;;;;;;;;;;;;;;5.78;30.44;101514.99;1796054;80;20164;-63
2022/03/17 12:14:24;;;;;;;;;;;;;;;5.58;29.80;101515.89;1769072;80;20544;-67
2022/03/17 12:17:09;;;;;;;;;;;;;;;5.59;30.95;101512.92;1796285;80;20092;-66
2022/03/17 12:19:52;;;;;;;;;;;;;;;6.04;29.57;101506.91;1788696;80;20150;-66
2022/03/17 12:22:39;;;;;;;;;;;;;;;6.25;29.69;101504.94;1792440;80;20096;-65
2022/03/17 12:25:32;;;;;;;;;;;;;;;6.25;29.12;101510.92;1796162;80;20072;-66
2022/03/17 12:27:56;;;;;;;;;;;;;;;5.79;28.40;101520.73;1795434;80;21256;-71
2022/03/17 12:30:25;;;;;;;;;;;;;;;5.37;29.08;101510.98;1795770;80;20103;-69
2022/03/17 12:33:01;;;;;;;;;;;;;;;5.51;29.54;101505.09;1795864;80;20088;-68
2022/03/17 12:35:35;;;;;;;;;;;;;;;5.96;29.31;101504.01;1795960;80;20080;-70
2022/03/17 12:38:07;;;;;;;;;;;;;;;6.46;30.54;101502.61;1796003;80;20103;-72
2022/03/17 12:40:50;;;;;;;;;;;;;;;7.02;29.66;101505.90;1795829;79;21147;-65
2022/03/17 12:43:22;;;;;;;;;;;;;;;7.54;27.82;101499.70;1795157;80;20096;-67
2022/03/17 12:45:56;;;;;;;;;;;;;;;7.57;27.48;101510.14;1795916;79;20443;-68
2022/03/17 12:48:27;;;;;;;;;;;;;;;7.46;27.10;101511.07;1773876;80;20165;-70
2022/03/17 12:51:01;;;;;;;;;;;;;;;7.37;27.86;101515.82;1768012;79;20217;-69
2022/03/17 12:53:34;;;;;;;;;;;;;;;7.51;28.21;101510.33;1784090;79;21896;-65
2022/03/17 12:56:00;;;;;;;;;;;;;;;7.90;27.20;101500.27;1797839;79;20155;-66
2022/03/17 12:58:34;;;;;;;;;;;;;;;8.15;27.10;101501.16;1794275;79;20191;-68
2022/03/17 13:01:07;;;;;;;;;;;;;;;8.25;26.90;101504.03;1769273;80;20103;-67
2022/03/17 13:03:31;;;;;;;;;;;;;;;8.10;26.77;101496.97;1757066;80;20092;-68
2022/03/17 13:08:44;;;;;;;;;;;;;;;6.88;26.91;101519.05;1782070;80;20443;-66
2022/03/17 13:14:21;;;;;;;;;;;;;;;5.80;28.89;101519.67;1781671;80;20934;-64
2022/03/17 13:17:02;;;;;;;;;;;;;;;6.08;28.96;101519.53;1758093;80;20200;-66
2022/03/17 13:19:29;;;;;;;;;;;;;;;6.60;28.03;101517.11;1776543;80;21225;-66